createdAt,value
2019-03-19T00:00:44.750Z,0
2019-03-19T00:01:46.256Z,0
2019-03-19T00:02:47.752Z,0
2019-03-19T00:03:49.235Z,0
2019-03-19T00:04:50.635Z,0
2019-03-19T00:05:52.055Z,0
2019-03-19T00:06:53.495Z,0
2019-03-19T00:07:54.944Z,0
2019-03-19T00:08:56.413Z,0
2019-03-19T00:09:57.846Z,0
2019-03-19T00:10:59.357Z,0
2019-03-19T00:12:00.836Z,0
2019-03-19T00:13:02.429Z,0
2019-03-19T00:14:03.869Z,0
2019-03-19T00:15:05.351Z,0
2019-03-19T00:16:06.774Z,0
2019-03-19T00:17:08.177Z,0
2019-03-19T00:18:09.657Z,0
2019-03-19T00:19:11.057Z,0
2019-03-19T00:20:14.201Z,0
2019-03-19T00:21:15.717Z,0
2019-03-19T00:22:17.162Z,0
2019-03-19T00:23:18.668Z,0
2019-03-19T00:24:20.201Z,0
2019-03-19T00:25:29.563Z,0
2019-03-19T00:26:23.071Z,0
2019-03-19T00:27:24.490Z,0
2019-03-19T00:28:25.931Z,0
2019-03-19T00:29:29.205Z,0
2019-03-19T00:30:30.598Z,0
2019-03-19T00:31:32.080Z,0
2019-03-19T00:32:35.158Z,0
2019-03-19T00:33:36.647Z,0
2019-03-19T00:34:38.215Z,0
2019-03-19T00:35:40.356Z,0
2019-03-19T00:36:41.963Z,0
2019-03-19T00:37:43.518Z,0
2019-03-19T00:38:45.003Z,0
2019-03-19T00:39:46.436Z,0
2019-03-19T00:40:47.895Z,0
2019-03-19T00:41:49.330Z,0
2019-03-19T00:42:50.816Z,0
2019-03-19T00:43:52.280Z,0
2019-03-19T00:44:53.753Z,0
2019-03-19T00:45:55.183Z,0
2019-03-19T00:46:56.692Z,0
2019-03-19T00:47:58.132Z,0
2019-03-19T00:49:01.279Z,0
2019-03-19T00:50:02.845Z,0
2019-03-19T00:51:06.225Z,0
2019-03-19T00:52:09.323Z,0
2019-03-19T00:53:10.794Z,0
2019-03-19T00:54:12.340Z,0
2019-03-19T00:55:15.715Z,0
2019-03-19T00:56:17.183Z,0
2019-03-19T00:57:18.693Z,0
2019-03-19T00:58:20.106Z,0
2019-03-19T00:59:21.660Z,0
2019-03-19T01:00:23.123Z,0
2019-03-19T01:01:24.633Z,0
2019-03-19T01:02:26.154Z,0
2019-03-19T01:03:27.632Z,0
2019-03-19T01:04:29.126Z,0
2019-03-19T01:05:30.600Z,0
2019-03-19T01:06:33.730Z,0
2019-03-19T01:07:35.377Z,0
2019-03-19T01:08:36.878Z,0
2019-03-19T01:09:38.422Z,0
2019-03-19T01:10:39.963Z,0
2019-03-19T01:11:41.421Z,0
2019-03-19T01:12:44.734Z,0
2019-03-19T01:13:46.294Z,0
2019-03-19T01:14:47.850Z,0
2019-03-19T01:15:49.299Z,0
2019-03-19T01:16:50.735Z,0
2019-03-19T01:17:52.195Z,0
2019-03-19T01:18:53.688Z,0
2019-03-19T01:19:55.190Z,0
2019-03-19T01:20:56.711Z,0
2019-03-19T01:21:58.172Z,0
2019-03-19T01:22:59.647Z,0
2019-03-19T01:24:01.111Z,0
2019-03-19T01:25:02.588Z,0
2019-03-19T01:26:04.064Z,0
2019-03-19T01:27:05.640Z,0
2019-03-19T01:28:07.106Z,0
2019-03-19T01:29:08.702Z,0
2019-03-19T01:30:10.105Z,0
2019-03-19T01:31:11.511Z,0
2019-03-19T01:32:13.100Z,0
2019-03-19T01:33:14.515Z,0
2019-03-19T01:34:16.045Z,0
2019-03-19T01:35:17.607Z,0
2019-03-19T01:36:19.110Z,0
2019-03-19T01:37:20.594Z,0
2019-03-19T01:38:22.065Z,0
2019-03-19T01:39:23.517Z,0
2019-03-19T01:40:25.015Z,0
2019-03-19T01:41:26.517Z,0
2019-03-19T01:42:28.014Z,0
2019-03-19T01:43:31.467Z,0
2019-03-19T01:44:32.991Z,0
2019-03-19T01:45:34.502Z,0
2019-03-19T01:46:35.992Z,0
2019-03-19T01:47:39.211Z,0
2019-03-19T01:48:40.684Z,0
2019-03-19T01:49:42.146Z,0
2019-03-19T01:50:43.710Z,0
2019-03-19T01:51:45.253Z,0
2019-03-19T01:52:46.692Z,0
2019-03-19T01:53:48.292Z,0
2019-03-19T01:54:49.808Z,0
2019-03-19T01:55:51.296Z,0
2019-03-19T01:56:52.807Z,0
2019-03-19T01:57:54.322Z,0
2019-03-19T01:58:55.822Z,0
2019-03-19T01:59:57.300Z,0
2019-03-19T02:01:00.732Z,0
2019-03-19T02:02:02.192Z,0
2019-03-19T02:03:03.811Z,0
2019-03-19T02:04:05.347Z,0
2019-03-19T02:05:08.837Z,0
2019-03-19T02:06:10.315Z,0
2019-03-19T02:07:11.875Z,0
2019-03-19T02:08:13.335Z,0
2019-03-19T02:09:14.822Z,0
2019-03-19T02:10:16.255Z,0
2019-03-19T02:11:17.836Z,0
2019-03-19T02:12:19.251Z,0
2019-03-19T02:13:20.682Z,0
2019-03-19T02:14:22.225Z,0
2019-03-19T02:15:23.687Z,0
2019-03-19T02:16:25.219Z,0
2019-03-19T02:17:26.782Z,0
2019-03-19T02:18:30.296Z,0
2019-03-19T02:19:31.797Z,0
2019-03-19T02:20:33.353Z,0
2019-03-19T02:21:34.793Z,0
2019-03-19T02:22:36.207Z,0
2019-03-19T02:23:37.786Z,0
2019-03-19T02:24:39.185Z,0
2019-03-19T02:25:42.196Z,0
2019-03-19T02:26:43.653Z,0
2019-03-19T02:27:45.206Z,0
2019-03-19T02:28:46.714Z,0
2019-03-19T02:29:48.370Z,0
2019-03-19T02:30:49.867Z,0
2019-03-19T02:31:51.311Z,0
2019-03-19T02:32:52.762Z,0
2019-03-19T02:33:54.232Z,0
2019-03-19T02:34:55.713Z,0
2019-03-19T02:35:57.172Z,0
2019-03-19T02:36:58.791Z,0
2019-03-19T02:38:00.120Z,0
2019-03-19T02:39:01.658Z,0
2019-03-19T02:40:02.959Z,0
2019-03-19T02:41:04.403Z,0
2019-03-19T02:42:05.826Z,0
2019-03-19T02:43:07.250Z,0
2019-03-19T02:44:08.711Z,0
2019-03-19T02:45:10.203Z,0
2019-03-19T02:46:11.676Z,0
2019-03-19T02:47:13.173Z,0
2019-03-19T02:48:14.651Z,0
2019-03-19T02:49:16.088Z,0
2019-03-19T02:50:17.546Z,0
2019-03-19T02:51:19.053Z,0
2019-03-19T02:52:20.556Z,0
2019-03-19T02:53:22.029Z,0
2019-03-19T02:54:23.666Z,0
2019-03-19T02:55:25.271Z,0
2019-03-19T02:56:32.649Z,0
2019-03-19T02:57:28.244Z,0
2019-03-19T02:58:29.707Z,0
2019-03-19T02:59:31.168Z,0
2019-03-19T03:00:32.648Z,0
2019-03-19T03:01:34.201Z,0
2019-03-19T03:02:35.804Z,0
2019-03-19T03:03:37.284Z,0
2019-03-19T03:04:38.827Z,0
2019-03-19T03:05:40.334Z,0
2019-03-19T03:06:41.798Z,0
2019-03-19T03:07:45.204Z,0
2019-03-19T03:08:46.737Z,0
2019-03-19T03:09:48.243Z,0
2019-03-19T03:10:51.863Z,0
2019-03-19T03:11:53.473Z,0
2019-03-19T03:12:54.925Z,0
2019-03-19T03:13:56.446Z,0
2019-03-19T03:14:58.074Z,0
2019-03-19T03:15:59.642Z,0
2019-03-19T03:17:01.235Z,0
2019-03-19T03:18:02.814Z,0
2019-03-19T03:19:04.292Z,0
2019-03-19T03:20:05.825Z,0
2019-03-19T03:21:09.235Z,0
2019-03-19T03:22:10.709Z,0
2019-03-19T03:23:12.341Z,0
2019-03-19T03:24:13.783Z,0
2019-03-19T03:25:15.314Z,0
2019-03-19T03:26:16.993Z,0
2019-03-19T03:27:18.655Z,0
2019-03-19T03:28:20.120Z,0
2019-03-19T03:29:21.676Z,0
2019-03-19T03:30:24.734Z,0
2019-03-19T03:31:26.232Z,0
2019-03-19T03:32:27.663Z,0
2019-03-19T03:33:29.254Z,0
2019-03-19T03:34:32.718Z,0
2019-03-19T03:35:34.209Z,0
2019-03-19T03:36:35.816Z,0
2019-03-19T03:37:39.217Z,0
2019-03-19T03:38:44.305Z,0
2019-03-19T03:39:45.838Z,0
2019-03-19T03:40:47.336Z,0
2019-03-19T03:41:48.900Z,0
2019-03-19T03:42:50.423Z,0
2019-03-19T03:43:51.960Z,0
2019-03-19T03:44:53.581Z,0
2019-03-19T03:45:55.133Z,0
2019-03-19T03:46:58.294Z,0
2019-03-19T03:47:59.824Z,0
2019-03-19T03:49:01.302Z,0
2019-03-19T03:50:02.823Z,0
2019-03-19T03:51:04.295Z,0
2019-03-19T03:52:07.828Z,0
2019-03-19T03:53:09.341Z,0
2019-03-19T03:54:10.838Z,0
2019-03-19T03:55:12.344Z,0
2019-03-19T03:56:13.812Z,0
2019-03-19T03:57:15.381Z,0
2019-03-19T03:58:18.753Z,0
2019-03-19T03:59:20.243Z,0
2019-03-19T04:00:21.830Z,0
2019-03-19T04:01:23.419Z,0
2019-03-19T04:02:26.792Z,0
2019-03-19T04:03:28.353Z,0
2019-03-19T04:04:29.900Z,0
2019-03-19T04:05:31.465Z,0
2019-03-19T04:06:33.003Z,0
2019-03-19T04:07:34.535Z,0
2019-03-19T04:08:36.131Z,0
2019-03-19T04:09:37.576Z,0
2019-03-19T04:10:39.104Z,0
2019-03-19T04:11:40.556Z,0
2019-03-19T04:12:42.109Z,0
2019-03-19T04:13:43.615Z,0
2019-03-19T04:14:46.629Z,0
2019-03-19T04:15:46.544Z,0
2019-03-19T04:16:48.086Z,0
2019-03-19T04:17:49.530Z,0
2019-03-19T04:18:51.102Z,0
2019-03-19T04:19:52.603Z,0
2019-03-19T04:20:54.107Z,0
2019-03-19T04:21:55.693Z,0
2019-03-19T04:22:57.187Z,0
2019-03-19T04:23:58.652Z,0
2019-03-19T04:25:00.855Z,0
2019-03-19T04:26:02.313Z,0
2019-03-19T04:27:15.468Z,0
2019-03-19T04:28:05.259Z,0
2019-03-19T04:29:06.806Z,0
2019-03-19T04:30:08.371Z,0
2019-03-19T04:31:09.876Z,0
2019-03-19T04:32:11.410Z,0
2019-03-19T04:33:12.872Z,0
2019-03-19T04:34:14.267Z,0
2019-03-19T04:35:15.777Z,0
2019-03-19T04:36:17.282Z,0
2019-03-19T04:37:18.801Z,0
2019-03-19T04:38:20.364Z,0
2019-03-19T04:39:23.908Z,0
2019-03-19T04:40:25.515Z,0
2019-03-19T04:41:27.110Z,0
2019-03-19T04:42:28.681Z,0
2019-03-19T04:43:30.120Z,0
2019-03-19T04:44:31.657Z,0
2019-03-19T04:45:33.167Z,0
2019-03-19T04:46:34.666Z,0
2019-03-19T04:47:36.153Z,0
2019-03-19T04:48:37.723Z,0
2019-03-19T04:49:39.260Z,0
2019-03-19T04:50:40.760Z,0
2019-03-19T04:51:42.300Z,0
2019-03-19T04:52:43.974Z,0
2019-03-19T04:53:47.335Z,0
2019-03-19T04:54:48.809Z,0
2019-03-19T04:55:50.310Z,0
2019-03-19T04:56:51.820Z,0
2019-03-19T04:57:53.318Z,0
2019-03-19T04:58:55.020Z,0
2019-03-19T04:59:58.891Z,0
2019-03-19T05:00:59.746Z,0
2019-03-19T05:02:01.195Z,0
2019-03-19T05:03:04.236Z,0
2019-03-19T05:04:05.712Z,0
2019-03-19T05:05:07.310Z,0
2019-03-19T05:06:08.788Z,0
2019-03-19T05:07:10.367Z,0
2019-03-19T05:08:11.845Z,0
2019-03-19T05:09:15.334Z,0
2019-03-19T05:10:16.847Z,0
2019-03-19T05:11:18.341Z,0
2019-03-19T05:12:19.842Z,0
2019-03-19T05:13:21.491Z,0
2019-03-19T05:14:22.872Z,0
2019-03-19T05:15:24.346Z,0
2019-03-19T05:16:27.764Z,0
2019-03-19T05:17:29.262Z,0
2019-03-19T05:18:32.764Z,0
2019-03-19T05:19:34.373Z,0
2019-03-19T05:20:36.014Z,0
2019-03-19T05:21:37.530Z,0
2019-03-19T05:22:38.942Z,0
2019-03-19T05:23:40.357Z,0
2019-03-19T05:24:41.847Z,0
2019-03-19T05:25:43.301Z,0
2019-03-19T05:26:44.804Z,0
2019-03-19T05:27:46.517Z,0
2019-03-19T05:28:47.980Z,0
2019-03-19T05:29:49.413Z,0
2019-03-19T05:30:50.954Z,0
2019-03-19T05:31:53.411Z,0
2019-03-19T05:32:56.727Z,0
2019-03-19T05:34:00.233Z,0
2019-03-19T05:35:01.750Z,0
2019-03-19T05:36:03.186Z,0
2019-03-19T05:37:04.800Z,0
2019-03-19T05:38:06.275Z,0
2019-03-19T05:39:07.852Z,0
2019-03-19T05:40:09.413Z,0
2019-03-19T05:41:12.751Z,0
2019-03-19T05:42:16.283Z,0
2019-03-19T05:43:17.743Z,0
2019-03-19T05:44:19.217Z,0
2019-03-19T05:45:20.702Z,0
2019-03-19T05:46:22.288Z,5
2019-03-19T05:47:23.840Z,5
2019-03-19T05:48:25.295Z,5
2019-03-19T05:49:26.833Z,5
2019-03-19T05:50:28.314Z,5
2019-03-19T05:51:29.986Z,5
2019-03-19T05:52:31.551Z,5
2019-03-19T05:53:33.013Z,5
2019-03-19T05:54:34.545Z,5
2019-03-19T05:55:36.012Z,5
2019-03-19T05:56:39.229Z,5
2019-03-19T05:57:48.804Z,5
2019-03-19T05:58:42.278Z,11
2019-03-19T05:59:45.807Z,11
2019-03-19T06:00:47.713Z,11
2019-03-19T06:01:49.246Z,11
2019-03-19T06:02:52.732Z,11
2019-03-19T06:03:56.762Z,11
2019-03-19T06:05:00.558Z,11
2019-03-19T06:06:02.514Z,11
2019-03-19T06:07:04.248Z,11
2019-03-19T06:08:06.017Z,11
2019-03-19T06:09:07.701Z,11
2019-03-19T06:10:10.853Z,16
2019-03-19T06:11:12.755Z,16
2019-03-19T06:12:16.477Z,16
2019-03-19T06:13:18.270Z,16
2019-03-19T06:14:19.900Z,16
2019-03-19T06:15:21.867Z,16
2019-03-19T06:16:25.685Z,16
2019-03-19T06:17:27.291Z,16
2019-03-19T06:18:35.070Z,16
2019-03-19T06:19:30.968Z,16
2019-03-19T06:20:32.627Z,16
2019-03-19T06:21:34.340Z,16
2019-03-19T06:22:35.938Z,22
2019-03-19T06:23:37.723Z,22
2019-03-19T06:24:39.503Z,22
2019-03-19T06:25:42.987Z,22
2019-03-19T06:26:44.730Z,22
2019-03-19T06:27:46.288Z,22
2019-03-19T06:28:47.861Z,22
2019-03-19T06:29:51.534Z,22
2019-03-19T06:30:53.137Z,22
2019-03-19T06:31:54.702Z,22
2019-03-19T06:32:56.282Z,22
2019-03-19T06:33:57.705Z,22
2019-03-19T06:34:59.214Z,22
2019-03-19T06:36:00.889Z,22
2019-03-19T06:37:02.439Z,28
2019-03-19T06:38:03.997Z,28
2019-03-19T06:39:05.474Z,28
2019-03-19T06:40:07.048Z,28
2019-03-19T06:41:08.507Z,28
2019-03-19T06:42:09.971Z,28
2019-03-19T06:43:11.398Z,28
2019-03-19T06:44:12.872Z,28
2019-03-19T06:45:14.322Z,28
2019-03-19T06:46:15.970Z,28
2019-03-19T06:47:17.481Z,28
2019-03-19T06:48:20.889Z,28
2019-03-19T06:49:22.314Z,28
2019-03-19T06:50:23.758Z,28
2019-03-19T06:51:25.292Z,28
2019-03-19T06:52:26.972Z,28
2019-03-19T06:53:30.720Z,33
2019-03-19T06:54:32.352Z,33
2019-03-19T06:55:34.239Z,33
2019-03-19T06:56:35.915Z,33
2019-03-19T06:57:39.467Z,33
2019-03-19T06:58:41.114Z,33
2019-03-19T06:59:42.875Z,33
2019-03-19T07:00:46.355Z,33
2019-03-19T07:01:49.764Z,33
2019-03-19T07:02:51.838Z,33
2019-03-19T07:03:53.469Z,33
2019-03-19T07:04:55.047Z,39
2019-03-19T07:05:56.710Z,39
2019-03-19T07:06:59.846Z,39
2019-03-19T07:08:01.486Z,39
2019-03-19T07:09:03.371Z,39
2019-03-19T07:10:04.989Z,39
2019-03-19T07:11:06.645Z,39
2019-03-19T07:12:08.415Z,39
2019-03-19T07:13:09.953Z,39
2019-03-19T07:14:11.760Z,39
2019-03-19T07:15:13.425Z,39
2019-03-19T07:16:14.927Z,39
2019-03-19T07:17:16.776Z,39
2019-03-19T07:18:18.527Z,39
2019-03-19T07:19:20.105Z,45
2019-03-19T07:20:21.807Z,45
2019-03-19T07:21:23.685Z,50
2019-03-19T07:22:26.876Z,50
2019-03-19T07:23:28.616Z,56
2019-03-19T07:24:30.388Z,56
2019-03-19T07:25:32.056Z,56
2019-03-19T07:26:33.620Z,56
2019-03-19T07:27:35.300Z,50
2019-03-19T07:28:38.858Z,50
2019-03-19T07:29:40.324Z,45
2019-03-19T07:30:41.844Z,45
2019-03-19T07:31:43.407Z,45
2019-03-19T07:32:45.066Z,45
2019-03-19T07:33:46.611Z,45
2019-03-19T07:34:48.297Z,45
2019-03-19T07:35:51.899Z,45
2019-03-19T07:36:53.650Z,45
2019-03-19T07:37:55.426Z,45
2019-03-19T07:38:57.032Z,45
2019-03-19T07:39:58.637Z,45
2019-03-19T07:41:01.303Z,45
2019-03-19T07:42:04.893Z,45
2019-03-19T07:43:06.460Z,45
2019-03-19T07:44:08.226Z,50
2019-03-19T07:45:09.823Z,50
2019-03-19T07:46:11.484Z,50
2019-03-19T07:47:15.001Z,50
2019-03-19T07:48:16.582Z,50
2019-03-19T07:49:18.285Z,50
2019-03-19T07:50:20.079Z,50
2019-03-19T07:51:21.861Z,50
2019-03-19T07:52:23.721Z,50
2019-03-19T07:53:25.596Z,50
2019-03-19T07:54:27.326Z,50
2019-03-19T07:55:31.156Z,50
2019-03-19T07:56:32.845Z,50
2019-03-19T07:57:34.516Z,50
2019-03-19T07:58:44.730Z,50
2019-03-19T07:59:37.856Z,56
2019-03-19T08:00:41.633Z,56
2019-03-19T08:01:43.435Z,56
2019-03-19T08:02:46.212Z,56
2019-03-19T08:03:47.840Z,56
2019-03-19T08:04:49.547Z,56
2019-03-19T08:05:53.065Z,56
2019-03-19T08:06:54.928Z,56
2019-03-19T08:07:56.684Z,56
2019-03-19T08:08:58.253Z,56
2019-03-19T08:10:00.030Z,56
2019-03-19T08:11:01.815Z,56
2019-03-19T08:12:03.593Z,61
2019-03-19T08:13:05.282Z,61
2019-03-19T08:14:06.977Z,61
2019-03-19T08:15:08.599Z,61
2019-03-19T08:16:10.175Z,61
2019-03-19T08:17:11.868Z,61
2019-03-19T08:18:13.545Z,61
2019-03-19T08:19:15.256Z,61
2019-03-19T08:20:18.299Z,61
2019-03-19T08:21:19.832Z,67
2019-03-19T08:22:21.386Z,67
2019-03-19T08:23:22.928Z,67
2019-03-19T08:24:26.519Z,67
2019-03-19T08:25:28.047Z,67
2019-03-19T08:26:29.614Z,67
2019-03-19T08:27:31.227Z,67
2019-03-19T08:28:33.804Z,67
2019-03-19T08:29:34.775Z,67
2019-03-19T08:30:35.974Z,73
2019-03-19T08:31:37.443Z,73
2019-03-19T08:32:39.104Z,73
2019-03-19T08:33:40.628Z,73
2019-03-19T08:34:42.153Z,73
2019-03-19T08:35:43.754Z,78
2019-03-19T08:36:45.323Z,78
2019-03-19T08:37:48.895Z,78
2019-03-19T08:38:50.517Z,84
2019-03-19T08:39:52.083Z,84
2019-03-19T08:40:53.620Z,84
2019-03-19T08:41:55.183Z,84
2019-03-19T08:42:58.191Z,84
2019-03-19T08:43:58.166Z,90
2019-03-19T08:44:59.767Z,90
2019-03-19T08:46:01.240Z,95
2019-03-19T08:47:02.905Z,95
2019-03-19T08:48:06.333Z,101
2019-03-19T08:49:08.012Z,106
2019-03-19T08:50:09.560Z,106
2019-03-19T08:51:11.138Z,112
2019-03-19T08:52:12.679Z,112
2019-03-19T08:53:14.298Z,118
2019-03-19T08:54:15.862Z,118
2019-03-19T08:55:17.673Z,123
2019-03-19T08:56:19.299Z,129
2019-03-19T08:57:20.788Z,129
2019-03-19T08:58:22.397Z,135
2019-03-19T08:59:24.027Z,135
2019-03-19T09:00:25.675Z,140
2019-03-19T09:01:27.250Z,140
2019-03-19T09:02:28.784Z,140
2019-03-19T09:03:30.501Z,140
2019-03-19T09:04:32.075Z,140
2019-03-19T09:05:33.676Z,140
2019-03-19T09:06:35.175Z,146
2019-03-19T09:07:36.836Z,146
2019-03-19T09:08:38.453Z,146
2019-03-19T09:09:40.030Z,151
2019-03-19T09:10:41.630Z,151
2019-03-19T09:11:43.241Z,151
2019-03-19T09:12:44.867Z,157
2019-03-19T09:13:48.385Z,157
2019-03-19T09:14:50.051Z,163
2019-03-19T09:15:51.596Z,163
2019-03-19T09:16:53.181Z,163
2019-03-19T09:17:54.870Z,168
2019-03-19T09:18:56.454Z,168
2019-03-19T09:19:58.167Z,174
2019-03-19T09:20:59.913Z,174
2019-03-19T09:22:01.429Z,180
2019-03-19T09:23:03.099Z,180
2019-03-19T09:24:04.753Z,185
2019-03-19T09:25:06.362Z,185
2019-03-19T09:26:08.071Z,191
2019-03-19T09:27:09.793Z,191
2019-03-19T09:28:11.432Z,196
2019-03-19T09:29:16.872Z,208
2019-03-19T09:30:14.664Z,247
2019-03-19T09:31:16.279Z,286
2019-03-19T09:32:17.934Z,388
2019-03-19T09:33:21.432Z,1451
2019-03-19T09:34:22.947Z,2356
2019-03-19T09:35:26.164Z,2379
2019-03-19T09:36:26.253Z,2441
2019-03-19T09:37:28.039Z,2458
2019-03-19T09:38:29.678Z,2424
2019-03-19T09:39:31.223Z,2520
2019-03-19T09:40:32.823Z,2548
2019-03-19T09:41:34.494Z,2497
2019-03-19T09:42:36.137Z,2514
2019-03-19T09:43:37.669Z,2565
2019-03-19T09:44:39.508Z,2649
2019-03-19T09:45:41.213Z,2598
2019-03-19T09:46:42.760Z,2649
2019-03-19T09:47:46.376Z,2553
2019-03-19T09:48:47.951Z,2598
2019-03-19T09:49:49.542Z,2570
2019-03-19T09:50:51.122Z,2520
2019-03-19T09:51:52.803Z,2671
2019-03-19T09:52:54.383Z,2705
2019-03-19T09:53:55.933Z,2660
2019-03-19T09:54:57.623Z,2733
2019-03-19T09:55:59.383Z,2660
2019-03-19T09:57:00.951Z,2711
2019-03-19T09:58:02.486Z,2818
2019-03-19T09:59:04.242Z,2863
2019-03-19T10:00:05.875Z,2840
2019-03-19T10:01:07.598Z,2868
2019-03-19T10:02:09.225Z,2919
2019-03-19T10:03:10.782Z,3015
2019-03-19T10:04:12.404Z,3048
2019-03-19T10:05:13.961Z,2958
2019-03-19T10:06:15.718Z,2829
2019-03-19T10:07:17.235Z,2958
2019-03-19T10:08:19.062Z,3031
2019-03-19T10:09:20.666Z,3121
2019-03-19T10:10:22.219Z,3065
2019-03-19T10:11:23.771Z,3105
2019-03-19T10:12:25.484Z,3223
2019-03-19T10:13:27.044Z,3195
2019-03-19T10:14:28.717Z,3341
2019-03-19T10:15:30.245Z,3470
2019-03-19T10:16:31.843Z,3515
2019-03-19T10:17:33.351Z,3566
2019-03-19T10:18:35.044Z,3594
2019-03-19T10:19:36.580Z,3645
2019-03-19T10:20:38.145Z,3735
2019-03-19T10:21:39.757Z,3841
2019-03-19T10:22:41.383Z,3830
2019-03-19T10:23:42.972Z,3915
2019-03-19T10:24:44.508Z,3757
2019-03-19T10:25:46.177Z,3909
2019-03-19T10:26:47.760Z,4038
2019-03-19T10:27:49.414Z,4089
2019-03-19T10:28:51.133Z,4100
2019-03-19T10:29:52.864Z,4055
2019-03-19T10:30:54.451Z,4083
2019-03-19T10:31:56.182Z,4134
2019-03-19T10:32:57.818Z,4027
2019-03-19T10:33:59.508Z,4016
2019-03-19T10:35:01.098Z,4083
2019-03-19T10:36:02.888Z,4089
2019-03-19T10:37:04.684Z,4156
2019-03-19T10:38:06.425Z,4111
2019-03-19T10:39:09.068Z,4156
2019-03-19T10:40:09.810Z,4179
2019-03-19T10:41:11.454Z,4106
2019-03-19T10:42:13.199Z,4100
2019-03-19T10:43:14.860Z,4100
2019-03-19T10:44:16.557Z,4061
2019-03-19T10:45:18.314Z,4100
2019-03-19T10:46:20.062Z,4134
2019-03-19T10:47:21.866Z,4061
2019-03-19T10:48:23.602Z,4134
2019-03-19T10:49:25.303Z,4128
2019-03-19T10:50:27.024Z,4072
2019-03-19T10:51:28.740Z,4066
2019-03-19T10:52:30.472Z,4016
2019-03-19T10:53:32.250Z,3892
2019-03-19T10:54:33.937Z,3954
2019-03-19T10:55:35.605Z,4072
2019-03-19T10:56:38.759Z,4078
2019-03-19T10:57:38.898Z,4117
2019-03-19T10:58:40.512Z,4106
2019-03-19T10:59:49.020Z,3960
2019-03-19T11:00:44.036Z,4072
2019-03-19T11:01:45.709Z,4038
2019-03-19T11:02:47.492Z,3988
2019-03-19T11:03:49.157Z,3976
2019-03-19T11:04:50.814Z,3920
2019-03-19T11:05:52.457Z,3926
2019-03-19T11:06:54.092Z,3819
2019-03-19T11:07:55.858Z,3875
2019-03-19T11:08:57.566Z,3886
2019-03-19T11:09:59.221Z,3971
2019-03-19T11:11:03.322Z,3988
2019-03-19T11:12:02.451Z,3931
2019-03-19T11:13:04.207Z,3926
2019-03-19T11:14:05.996Z,4010
2019-03-19T11:15:07.751Z,3841
2019-03-19T11:16:09.413Z,3870
2019-03-19T11:17:11.073Z,3915
2019-03-19T11:18:12.884Z,3791
2019-03-19T11:19:14.495Z,3881
2019-03-19T11:20:16.157Z,3993
2019-03-19T11:21:17.918Z,3706
2019-03-19T11:22:21.497Z,2711
2019-03-19T11:23:23.269Z,1625
2019-03-19T11:24:25.135Z,759
2019-03-19T11:25:26.847Z,624
2019-03-19T11:26:28.535Z,585
2019-03-19T11:27:30.302Z,573
2019-03-19T11:28:32.108Z,568
2019-03-19T11:29:34.078Z,556
2019-03-19T11:30:35.874Z,551
2019-03-19T11:31:37.573Z,540
2019-03-19T11:32:39.436Z,534
2019-03-19T11:33:41.307Z,528
2019-03-19T11:34:43.370Z,523
2019-03-19T11:35:45.683Z,523
2019-03-19T11:36:57.234Z,517
2019-03-19T11:37:50.565Z,517
2019-03-19T11:38:52.566Z,517
2019-03-19T11:39:54.446Z,511
2019-03-19T11:40:56.404Z,506
2019-03-19T11:41:58.656Z,506
2019-03-19T11:43:00.420Z,506
2019-03-19T11:44:02.447Z,506
2019-03-19T11:45:06.102Z,506
2019-03-19T11:46:08.050Z,511
2019-03-19T11:47:10.398Z,506
2019-03-19T11:48:12.444Z,506
2019-03-19T11:49:14.705Z,500
2019-03-19T11:50:16.771Z,500
2019-03-19T11:51:18.982Z,500
2019-03-19T11:52:21.091Z,495
2019-03-19T11:53:22.957Z,495
2019-03-19T11:54:24.829Z,495
2019-03-19T11:55:27.261Z,495
2019-03-19T11:56:29.126Z,495
2019-03-19T11:57:30.967Z,495
2019-03-19T11:58:33.144Z,495
2019-03-19T11:59:35.072Z,495
2019-03-19T12:00:37.192Z,489
2019-03-19T12:01:39.023Z,489
2019-03-19T12:02:41.139Z,495
2019-03-19T12:03:42.981Z,489
2019-03-19T12:04:45.173Z,489
2019-03-19T12:05:47.223Z,489
2019-03-19T12:06:49.065Z,489
2019-03-19T12:07:50.907Z,489
2019-03-19T12:08:52.709Z,489
2019-03-19T12:09:54.742Z,495
2019-03-19T12:10:56.614Z,489
2019-03-19T12:11:58.781Z,489
2019-03-19T12:13:00.656Z,489
2019-03-19T12:14:02.785Z,489
2019-03-19T12:15:04.793Z,489
2019-03-19T12:16:07.233Z,483
2019-03-19T12:17:09.369Z,483
2019-03-19T12:18:11.493Z,483
2019-03-19T12:19:13.448Z,483
2019-03-19T12:20:15.657Z,483
2019-03-19T12:21:17.694Z,489
2019-03-19T12:22:19.453Z,483
2019-03-19T12:23:21.156Z,483
2019-03-19T12:25:45.533Z,483
2019-03-19T12:26:48.915Z,478
2019-03-19T12:27:51.271Z,478
2019-03-19T12:28:53.402Z,472
2019-03-19T12:29:55.614Z,466
2019-03-19T12:30:58.261Z,466
2019-03-19T12:32:00.753Z,461
2019-03-19T12:33:03.075Z,461
2019-03-19T12:34:05.084Z,461
2019-03-19T12:35:07.473Z,461
2019-03-19T12:36:10.304Z,461
2019-03-19T12:37:12.208Z,455
2019-03-19T12:38:14.327Z,455
2019-03-19T12:39:16.387Z,455
2019-03-19T12:40:18.543Z,455
2019-03-19T12:41:20.863Z,455
2019-03-19T12:42:23.281Z,455
2019-03-19T12:43:27.663Z,455
2019-03-19T12:44:29.597Z,455
2019-03-19T12:45:31.771Z,455
2019-03-19T12:46:34.242Z,455
2019-03-19T12:47:36.211Z,455
2019-03-19T12:48:38.439Z,461
2019-03-19T12:49:40.802Z,444
2019-03-19T12:50:43.912Z,433
2019-03-19T12:51:46.011Z,438
2019-03-19T12:52:48.331Z,438
2019-03-19T12:53:50.568Z,354
2019-03-19T12:54:52.920Z,427
2019-03-19T12:55:54.897Z,433
2019-03-19T12:56:57.129Z,433
2019-03-19T12:58:01.189Z,433
2019-03-19T12:59:01.719Z,438
2019-03-19T13:00:04.095Z,433
2019-03-19T13:01:06.464Z,427
2019-03-19T13:02:08.834Z,421
2019-03-19T13:03:11.872Z,421
2019-03-19T13:04:14.758Z,421
2019-03-19T13:05:18.231Z,421
2019-03-19T13:06:21.508Z,421
2019-03-19T13:07:23.912Z,421
2019-03-19T13:08:26.582Z,421
2019-03-19T13:09:29.339Z,410
2019-03-19T13:10:31.627Z,410
2019-03-19T13:11:34.340Z,416
2019-03-19T13:12:36.867Z,405
2019-03-19T13:13:40.821Z,393
2019-03-19T13:14:41.843Z,405
2019-03-19T13:15:44.514Z,410
2019-03-19T13:16:47.721Z,416
2019-03-19T13:17:50.369Z,416
2019-03-19T13:18:53.481Z,433
2019-03-19T13:19:56.645Z,444
2019-03-19T13:20:59.178Z,219
2019-03-19T13:22:01.524Z,365
2019-03-19T13:23:04.100Z,421
2019-03-19T13:24:06.530Z,236
2019-03-19T13:25:11.656Z,438
2019-03-19T13:26:11.802Z,416
2019-03-19T13:27:14.350Z,163
2019-03-19T13:28:16.818Z,157
2019-03-19T13:29:19.503Z,416
2019-03-19T13:30:21.707Z,219
2019-03-19T13:31:24.871Z,371
2019-03-19T13:32:28.239Z,399
2019-03-19T13:33:29.739Z,399
2019-03-19T13:34:32.492Z,405
2019-03-19T13:35:36.337Z,146
2019-03-19T13:36:38.986Z,320
2019-03-19T13:37:41.481Z,399
2019-03-19T13:38:44.166Z,354
2019-03-19T13:39:46.508Z,388
2019-03-19T13:40:48.873Z,382
2019-03-19T13:41:51.389Z,118
2019-03-19T13:42:53.996Z,112
2019-03-19T13:43:56.210Z,112
2019-03-19T13:44:58.242Z,123
2019-03-19T13:46:00.643Z,376
2019-03-19T13:47:03.110Z,151
2019-03-19T13:48:05.776Z,123
2019-03-19T13:49:08.210Z,270
2019-03-19T13:50:10.555Z,247
2019-03-19T13:51:12.832Z,146
2019-03-19T13:52:14.776Z,140
2019-03-19T13:53:16.838Z,382
2019-03-19T13:54:19.433Z,376
2019-03-19T13:55:22.543Z,151
2019-03-19T13:56:24.902Z,151
2019-03-19T13:57:27.045Z,219
2019-03-19T13:58:29.207Z,241
2019-03-19T13:59:31.580Z,270
2019-03-19T14:00:34.196Z,196
2019-03-19T14:01:37.008Z,264
2019-03-19T14:02:39.742Z,371
2019-03-19T14:03:43.006Z,337
2019-03-19T14:04:45.750Z,337
2019-03-19T14:05:48.070Z,309
2019-03-19T14:06:50.630Z,309
2019-03-19T14:07:53.372Z,354
2019-03-19T14:08:55.838Z,354
2019-03-19T14:09:58.131Z,354
2019-03-19T14:11:00.853Z,348
2019-03-19T14:12:03.563Z,247
2019-03-19T14:13:06.078Z,354
2019-03-19T14:14:08.793Z,326
2019-03-19T14:15:11.461Z,354
2019-03-19T14:16:14.340Z,376
2019-03-19T14:17:18.061Z,371
2019-03-19T14:18:21.307Z,354
2019-03-19T14:19:25.812Z,343
2019-03-19T14:20:29.023Z,348
2019-03-19T14:21:31.794Z,348
2019-03-19T14:22:34.944Z,337
2019-03-19T14:23:37.949Z,320
2019-03-19T14:24:41.022Z,326
2019-03-19T14:25:44.123Z,309
2019-03-19T14:26:46.956Z,123
2019-03-19T14:27:49.582Z,258
2019-03-19T14:28:51.671Z,146
2019-03-19T14:29:53.993Z,309
2019-03-19T14:31:07.621Z,309
2019-03-19T14:32:00.833Z,101
2019-03-19T14:33:04.904Z,101
2019-03-19T14:34:07.037Z,101
2019-03-19T14:35:09.068Z,95
2019-03-19T14:36:11.908Z,230
2019-03-19T14:37:14.090Z,118
2019-03-19T14:38:16.359Z,101
2019-03-19T14:39:18.877Z,101
2019-03-19T14:40:21.069Z,112
2019-03-19T14:41:23.599Z,286